Jordania, Brazil
Current Conditions -  °F | °C
As of 12:00 PM on Friday 19 Dec 2014 (Local Time) from SBPS Reporting Station
Overcast Overcast  
Wind Chill: 79°   Ceiling: 3500
Heat Index: 82°   Visibility: 6mi
Dew Point: 72°   Wind: 13mph
Humidity: 78%   Direction: 60°ENE
Pressure: 29.91"   Gusts: NA
Location:  15.9°S, 40.18°W
Report Text: SBPS 191400Z 06011KT 9999 SCT020 OVC035 26/22 Q1013
Loading
Personal Weather Stations






























Interactive Weather Map New forecast layout! Learn more

10-Day Weather Forecast

Advertisements
Track Severe Weather on mobile